Time;durP1;ratioP1;P1;durP2;ratioP2;P2;SDS_P1;SDS_P2;PMS_P1;PMS_P2;Temp;Humidity;BMP_temperature;BMP_pressure;BME280_temperature;BME280_humidity;BME280_pressure;Samples;Min_cycle;Max_cycle;Signal;HPM_P1;HPM_P2
2024/04/20 00:00:59;;;;;;;2.37;2.23;;;6.10;59.90;;;;;;5307412;27;20306;-66
2024/04/20 00:03:27;;;;;;;2.53;2.33;;;6.10;59.90;;;;;;5311573;27;20314;-68
2024/04/20 00:05:56;;;;;;;2.43;2.07;;;6.00;59.50;;;;;;5281740;27;20238;-67
2024/04/20 00:08:24;;;;;;;4.30;2.67;;;6.10;59.40;;;;;;5296661;27;20313;-66
2024/04/20 00:10:52;;;;;;;3.00;2.10;;;6.00;59.80;;;;;;5311655;27;20740;-67
2024/04/20 00:13:21;;;;;;;2.70;2.57;;;6.00;59.80;;;;;;5310781;27;20357;-67
2024/04/20 00:15:49;;;;;;;2.37;2.17;;;5.90;60.30;;;;;;5301994;27;20280;-67
2024/04/20 00:18:17;;;;;;;4.00;2.10;;;5.90;59.70;;;;;;5306292;27;20975;-67
2024/04/20 00:20:45;;;;;;;3.10;2.20;;;6.00;59.80;;;;;;5311324;27;20306;-67
2024/04/20 00:23:14;;;;;;;2.63;2.40;;;5.90;60.40;;;;;;5308992;27;20306;-67
2024/04/20 00:25:42;;;;;;;2.17;2.00;;;5.90;60.00;;;;;;5311416;27;20281;-67
2024/04/20 00:28:10;;;;;;;3.17;2.00;;;5.90;60.00;;;;;;5309900;27;20286;-66
2024/04/20 00:30:39;;;;;;;2.10;2.00;;;5.70;60.60;;;;;;5311155;27;20292;-66
2024/04/20 00:33:07;;;;;;;2.00;1.90;;;5.80;60.10;;;;;;5302028;27;20243;-67
2024/04/20 00:35:35;;;;;;;2.00;1.90;;;5.80;59.70;;;;;;5300450;27;20344;-67
2024/04/20 00:38:03;;;;;;;2.33;2.13;;;5.70;60.10;;;;;;5306488;27;20373;-66
2024/04/20 00:40:32;;;;;;;2.23;1.97;;;5.60;60.60;;;;;;5302313;27;20252;-67
2024/04/20 00:43:00;;;;;;;1.63;1.63;;;5.60;61.00;;;;;;5274552;27;20377;-67
2024/04/20 00:45:28;;;;;;;2.27;2.07;;;5.60;61.10;;;;;;5310789;27;20710;-67
2024/04/20 00:47:56;;;;;;;1.77;1.67;;;5.60;61.20;;;;;;5310611;27;20374;-66
2024/04/20 00:50:26;;;;;;;1.70;1.70;;;5.60;60.70;;;;;;5300776;27;20302;-66
2024/04/20 00:52:54;;;;;;;1.90;1.80;;;5.70;60.70;;;;;;5306976;27;20242;-67
2024/04/20 00:55:23;;;;;;;2.03;1.70;;;5.60;60.60;;;;;;5304748;27;20243;-66
2024/04/20 00:57:51;;;;;;;1.90;1.80;;;5.50;60.50;;;;;;5309577;27;20897;-67
2024/04/20 01:00:19;;;;;;;1.80;1.70;;;5.50;60.60;;;;;;5307559;27;20303;-67
2024/04/20 01:02:47;;;;;;;1.90;1.80;;;5.40;60.50;;;;;;5310601;27;20294;-66
2024/04/20 01:05:17;;;;;;;1.80;1.80;;;5.50;61.10;;;;;;5298386;27;20635;-67
2024/04/20 01:07:45;;;;;;;1.83;1.67;;;5.40;60.50;;;;;;5302458;27;20230;-66
2024/04/20 01:10:13;;;;;;;2.07;1.97;;;5.40;60.80;;;;;;5310536;27;20310;-66
2024/04/20 01:12:42;;;;;;;1.90;1.80;;;5.20;61.30;;;;;;5299382;27;20266;-67
2024/04/20 01:15:10;;;;;;;1.73;1.63;;;5.40;61.40;;;;;;5310939;27;20843;-67
2024/04/20 01:17:38;;;;;;;1.97;1.87;;;5.40;61.40;;;;;;5310243;27;20294;-67
2024/04/20 01:20:13;;;;;;;1.90;1.80;;;5.30;61.30;;;;;;5276844;27;20234;-67
2024/04/20 01:22:41;;;;;;;2.33;2.13;;;5.20;61.60;;;;;;5297589;27;20242;-67
2024/04/20 01:25:09;;;;;;;1.87;1.77;;;5.30;62.10;;;;;;5307182;27;20289;-67
2024/04/20 01:27:37;;;;;;;2.00;1.90;;;5.40;61.00;;;;;;5299972;27;20250;-67
2024/04/20 01:30:08;;;;;;;2.00;1.90;;;5.40;60.40;;;;;;5309962;27;20349;-67
2024/04/20 01:32:36;;;;;;;1.90;1.80;;;5.30;61.10;;;;;;5309757;27;20253;-67
2024/04/20 01:35:04;;;;;;;2.00;1.90;;;5.30;61.10;;;;;;5310226;27;20294;-66
2024/04/20 01:37:33;;;;;;;2.67;2.27;;;5.20;61.40;;;;;;5310573;27;20315;-66
2024/04/20 01:40:01;;;;;;;2.30;2.20;;;5.30;61.10;;;;;;5301049;27;20239;-67
2024/04/20 01:42:29;;;;;;;2.13;2.00;;;5.20;60.90;;;;;;5273869;27;20757;-67
2024/04/20 01:44:57;;;;;;;2.10;1.90;;;5.20;61.30;;;;;;5294780;27;20660;-67
2024/04/20 01:47:28;;;;;;;2.60;1.90;;;5.30;60.90;;;;;;5309519;27;20342;-66
2024/04/20 01:49:56;;;;;;;3.00;2.13;;;5.30;61.50;;;;;;5308349;27;20230;-67
2024/04/20 01:52:25;;;;;;;2.40;2.20;;;5.10;61.30;;;;;;5309938;27;20454;-66
2024/04/20 01:54:53;;;;;;;2.20;2.10;;;5.10;61.10;;;;;;5311580;27;20368;-66
2024/04/20 01:57:21;;;;;;;2.20;2.10;;;5.10;61.50;;;;;;5289168;27;20365;-66
2024/04/20 01:59:49;;;;;;;2.30;2.10;;;5.20;61.20;;;;;;5305956;27;20384;-67
2024/04/20 02:02:19;;;;;;;3.27;2.20;;;5.20;61.10;;;;;;5307287;27;21187;-67
2024/04/20 02:04:47;;;;;;;1.93;1.83;;;5.30;60.70;;;;;;5305330;27;20235;-67
2024/04/20 02:07:15;;;;;;;2.00;1.90;;;5.20;61.10;;;;;;5311472;27;20368;-67
2024/04/20 02:09:44;;;;;;;2.70;2.50;;;5.10;61.20;;;;;;5307792;27;20428;-67
2024/04/20 02:12:12;;;;;;;2.33;2.13;;;5.00;61.10;;;;;;5310960;27;20302;-67
2024/04/20 02:14:41;;;;;;;1.83;1.73;;;5.00;61.50;;;;;;5293158;27;20234;-67
2024/04/20 02:17:09;;;;;;;2.13;2.03;;;5.10;61.20;;;;;;5310136;27;20373;-67
2024/04/20 02:19:37;;;;;;;2.13;2.03;;;5.10;60.90;;;;;;5312854;27;20714;-66
2024/04/20 02:22:05;;;;;;;1.97;1.87;;;5.00;60.90;;;;;;5306531;27;20309;-66
2024/04/20 02:24:35;;;;;;;3.00;2.70;;;5.00;61.10;;;;;;5312671;27;20401;-67
2024/04/20 02:27:03;;;;;;;2.63;1.93;;;5.00;61.10;;;;;;5282373;27;20347;-67
2024/04/20 02:29:32;;;;;;;2.13;2.03;;;5.00;61.00;;;;;;5303028;27;20413;-67
2024/04/20 02:32:00;;;;;;;2.50;2.30;;;5.00;60.80;;;;;;5296786;27;20336;-67
2024/04/20 02:34:28;;;;;;;2.70;2.50;;;5.20;60.40;;;;;;5282896;27;20242;-66
2024/04/20 02:36:56;;;;;;;2.40;2.30;;;5.10;60.30;;;;;;5312796;27;20360;-67
2024/04/20 02:39:25;;;;;;;2.40;2.30;;;5.10;61.00;;;;;;5302320;27;20274;-67
2024/04/20 02:41:53;;;;;;;2.30;2.20;;;5.10;60.60;;;;;;5312048;27;20254;-67
2024/04/20 02:44:21;;;;;;;2.30;2.10;;;5.10;60.40;;;;;;5269988;27;20355;-67
2024/04/20 02:46:49;;;;;;;3.40;2.33;;;5.20;60.40;;;;;;5306096;27;20307;-67
2024/04/20 02:49:17;;;;;;;2.40;2.30;;;5.20;60.00;;;;;;5303385;27;20305;-67
2024/04/20 02:51:46;;;;;;;2.50;2.40;;;5.20;60.60;;;;;;5312616;27;20313;-67
2024/04/20 02:54:14;;;;;;;3.00;2.33;;;5.20;60.10;;;;;;5308027;27;20298;-67
2024/04/20 02:56:42;;;;;;;3.83;2.60;;;5.30;59.90;;;;;;5311984;27;20293;-67
2024/04/20 02:59:12;;;;;;;2.57;2.23;;;5.30;59.60;;;;;;5312158;27;20301;-67
2024/04/20 03:01:41;;;;;;;2.37;2.17;;;5.30;59.70;;;;;;5306028;27;20355;-67
2024/04/20 03:04:09;;;;;;;2.60;2.17;;;5.30;59.60;;;;;;5311575;27;20353;-66
2024/04/20 03:06:37;;;;;;;2.77;2.10;;;5.40;59.30;;;;;;5309920;27;20281;-67
2024/04/20 03:09:05;;;;;;;2.17;2.03;;;5.30;59.30;;;;;;5310393;27;20369;-66
2024/04/20 03:11:33;;;;;;;3.43;2.30;;;5.20;59.40;;;;;;5312017;27;20254;-67
2024/04/20 03:14:02;;;;;;;2.60;2.10;;;5.30;59.30;;;;;;5311788;27;20297;-66
2024/04/20 03:16:30;;;;;;;4.17;2.30;;;5.30;59.30;;;;;;5312121;27;20369;-66
2024/04/20 03:18:58;;;;;;;3.27;2.53;;;5.20;59.20;;;;;;5302033;27;20247;-67
2024/04/20 03:21:26;;;;;;;3.37;2.40;;;5.30;60.00;;;;;;5309289;27;20230;-67
2024/04/20 03:23:54;;;;;;;2.97;2.20;;;5.30;60.00;;;;;;5305884;27;20369;-67
2024/04/20 03:26:20;;;;;;;2.60;2.17;;;5.40;59.90;;;;;;5267750;27;20719;-67
2024/04/20 03:28:48;;;;;;;3.43;2.60;;;5.30;60.10;;;;;;5281935;27;20352;-67
2024/04/20 03:31:17;;;;;;;2.50;2.20;;;5.50;59.70;;;;;;5311528;27;20242;-67
2024/04/20 03:33:45;;;;;;;2.53;2.30;;;5.40;59.80;;;;;;5311939;27;20727;-67
2024/04/20 03:36:14;;;;;;;2.80;2.20;;;5.30;59.30;;;;;;5306252;27;20238;-67
2024/04/20 03:38:42;;;;;;;2.30;2.20;;;5.40;60.20;;;;;;5303234;27;20283;-66
2024/04/20 03:41:11;;;;;;;2.60;2.40;;;5.30;59.60;;;;;;5309327;27;20838;-67
2024/04/20 03:43:39;;;;;;;3.97;2.30;;;5.30;60.00;;;;;;5281242;27;20307;-66
2024/04/20 03:46:07;;;;;;;2.40;2.20;;;5.40;59.50;;;;;;5311928;27;20333;-67
2024/04/20 03:48:35;;;;;;;3.80;2.60;;;5.40;60.50;;;;;;5310664;27;20253;-67
2024/04/20 03:51:03;;;;;;;2.60;2.40;;;5.40;59.90;;;;;;5310159;27;20245;-67
2024/04/20 03:53:32;;;;;;;3.30;2.40;;;5.40;60.10;;;;;;5311201;27;20373;-67
2024/04/20 03:56:00;;;;;;;3.17;2.30;;;5.40;60.00;;;;;;5283317;27;20406;-66
2024/04/20 03:58:28;;;;;;;2.20;2.00;;;5.40;60.00;;;;;;5300022;27;20334;-66
2024/04/20 04:00:56;;;;;;;3.30;2.53;;;5.30;60.20;;;;;;5302962;27;20366;-67
2024/04/20 04:03:26;;;;;;;2.17;2.07;;;5.20;60.80;;;;;;5311079;27;20753;-66
2024/04/20 04:05:55;;;;;;;3.10;2.80;;;5.30;60.30;;;;;;5311035;27;20282;-67
2024/04/20 04:08:23;;;;;;;2.40;2.10;;;5.30;61.00;;;;;;5297055;27;20254;-66
2024/04/20 04:10:51;;;;;;;2.70;2.37;;;5.30;61.20;;;;;;5310947;27;20237;-67
2024/04/20 04:13:19;;;;;;;2.33;2.13;;;5.30;60.60;;;;;;5301271;27;20352;-66
2024/04/20 04:15:48;;;;;;;2.93;2.10;;;5.40;60.10;;;;;;5305252;27;20824;-67
2024/04/20 04:18:16;;;;;;;2.43;2.23;;;5.40;60.20;;;;;;5310594;27;20352;-67
2024/04/20 04:20:44;;;;;;;2.60;2.40;;;5.50;59.70;;;;;;5308128;27;20251;-70
2024/04/20 04:23:12;;;;;;;2.60;2.40;;;5.50;60.20;;;;;;5311886;27;20308;-66
2024/04/20 04:25:41;;;;;;;2.50;2.30;;;5.50;60.20;;;;;;5311710;27;20704;-67
2024/04/20 04:28:09;;;;;;;2.50;2.40;;;5.40;59.70;;;;;;5310296;27;20259;-67
2024/04/20 04:30:37;;;;;;;2.60;2.40;;;5.40;60.10;;;;;;5265447;27;20244;-72
2024/04/20 04:33:05;;;;;;;3.30;2.80;;;5.40;59.70;;;;;;5307073;27;20307;-66
2024/04/20 04:35:33;;;;;;;2.50;2.30;;;5.40;60.00;;;;;;5304545;27;20306;-66
2024/04/20 04:38:02;;;;;;;2.67;2.50;;;5.40;60.00;;;;;;5311041;27;20310;-66
2024/04/20 04:40:30;;;;;;;3.10;2.80;;;5.40;60.10;;;;;;5311059;27;20274;-66
2024/04/20 04:42:59;;;;;;;2.43;2.33;;;5.40;60.20;;;;;;5311024;27;20317;-66
2024/04/20 04:45:27;;;;;;;5.00;2.60;;;5.40;60.30;;;;;;5304894;27;20260;-66
2024/04/20 04:47:55;;;;;;;2.80;2.60;;;5.50;60.40;;;;;;5278729;27;20347;-68
2024/04/20 04:50:23;;;;;;;2.93;2.70;;;5.50;60.20;;;;;;5299547;27;20306;-67
2024/04/20 04:52:52;;;;;;;3.00;2.80;;;5.50;60.30;;;;;;5310498;27;20606;-67
2024/04/20 04:55:20;;;;;;;2.77;2.40;;;5.50;60.50;;;;;;5310721;27;20250;-67
2024/04/20 04:57:48;;;;;;;3.77;2.50;;;5.50;60.20;;;;;;5310657;27;20377;-67
2024/04/20 05:00:17;;;;;;;2.70;2.50;;;5.50;60.80;;;;;;5308310;27;20302;-67
2024/04/20 05:02:45;;;;;;;2.77;2.57;;;5.50;61.30;;;;;;5294308;27;20254;-69
2024/04/20 05:05:13;;;;;;;3.67;2.63;;;5.50;61.90;;;;;;5298711;27;20729;-67
2024/04/20 05:07:42;;;;;;;2.93;2.70;;;5.40;62.30;;;;;;5309732;27;20289;-66
2024/04/20 05:10:10;;;;;;;3.13;2.90;;;5.40;63.10;;;;;;5309794;27;20331;-67
2024/04/20 05:12:39;;;;;;;3.60;2.40;;;5.40;63.10;;;;;;5300353;27;20368;-67
2024/04/20 05:15:07;;;;;;;2.60;2.40;;;5.30;63.60;;;;;;5301204;27;20292;-66
2024/04/20 05:17:37;;;;;;;3.10;2.90;;;5.30;63.80;;;;;;5292784;27;20340;-68
2024/04/20 05:20:05;;;;;;;3.23;2.83;;;5.30;64.10;;;;;;5292285;27;20235;-67
2024/04/20 05:22:34;;;;;;;4.10;2.90;;;5.20;65.10;;;;;;5302251;27;20827;-66
2024/04/20 05:25:02;;;;;;;2.77;2.50;;;5.30;64.10;;;;;;5309780;27;21000;-67
2024/04/20 05:27:27;;;;;;;3.03;2.83;;;5.30;64.60;;;;;;5310142;27;20373;-66
2024/04/20 05:29:56;;;;;;;3.60;3.30;;;5.30;64.60;;;;;;5299867;27;20257;-66
2024/04/20 05:32:24;;;;;;;2.70;2.50;;;5.30;65.10;;;;;;5299955;27;20313;-67
2024/04/20 05:34:52;;;;;;;2.93;2.73;;;5.30;65.10;;;;;;5307833;27;20289;-67
2024/04/20 05:37:20;;;;;;;3.07;2.87;;;5.40;65.00;;;;;;5295703;27;20757;-67
2024/04/20 05:39:49;;;;;;;2.90;2.70;;;5.40;64.70;;;;;;5273445;27;20621;-67
2024/04/20 05:42:17;;;;;;;4.27;3.07;;;5.40;65.40;;;;;;5293308;27;20258;-66
2024/04/20 05:44:45;;;;;;;3.00;2.80;;;5.50;64.80;;;;;;5309836;27;20294;-66
2024/04/20 05:47:13;;;;;;;3.20;3.00;;;5.50;64.70;;;;;;5291528;27;20298;-67
2024/04/20 05:49:42;;;;;;;3.53;2.87;;;5.50;64.60;;;;;;5302935;27;20377;-67
2024/04/20 05:52:11;;;;;;;3.47;2.70;;;5.40;64.80;;;;;;5304015;26;20246;-67
2024/04/20 05:54:39;;;;;;;4.90;2.80;;;5.50;65.00;;;;;;5289599;27;20315;-67
2024/04/20 05:57:07;;;;;;;3.50;2.83;;;5.50;64.90;;;;;;5291073;27;20254;-67
2024/04/20 05:59:35;;;;;;;3.20;2.90;;;5.50;65.30;;;;;;5298652;27;20246;-67
2024/04/20 06:02:03;;;;;;;2.93;2.73;;;5.50;64.90;;;;;;5299105;27;20287;-67
2024/04/20 06:04:32;;;;;;;3.20;3.00;;;5.50;65.00;;;;;;5290555;27;20306;-67
2024/04/20 06:07:01;;;;;;;3.23;2.93;;;5.40;65.60;;;;;;5292695;27;20242;-67
2024/04/20 06:09:29;;;;;;;3.37;3.07;;;5.50;65.20;;;;;;5303703;27;20276;-67
2024/04/20 06:11:57;;;;;;;3.43;3.07;;;5.50;65.40;;;;;;5289866;27;20311;-67
2024/04/20 06:14:25;;;;;;;3.77;3.10;;;5.50;66.20;;;;;;5305751;27;20242;-66
2024/04/20 06:16:54;;;;;;;3.80;2.63;;;5.40;65.80;;;;;;5276282;27;20293;-67
2024/04/20 06:19:19;;;;;;;3.30;3.00;;;5.50;64.40;;;;;;5293781;27;20301;-67
2024/04/20 06:21:48;;;;;;;4.10;2.80;;;5.60;64.90;;;;;;5300658;27;20313;-68
2024/04/20 06:24:16;;;;;;;3.40;3.00;;;5.50;64.40;;;;;;5287115;27;20310;-67
2024/04/20 06:26:44;;;;;;;3.30;2.80;;;5.60;65.40;;;;;;5296508;27;20246;-68
2024/04/20 06:29:12;;;;;;;3.17;2.97;;;5.60;64.40;;;;;;5303770;27;20238;-67
2024/04/20 06:31:41;;;;;;;3.83;3.43;;;5.60;64.30;;;;;;5290410;27;20361;-67
2024/04/20 06:34:09;;;;;;;3.00;2.60;;;5.40;64.70;;;;;;5289408;27;20318;-67
2024/04/20 06:36:37;;;;;;;3.70;2.87;;;5.50;64.80;;;;;;5304332;27;20871;-67
2024/04/20 06:39:05;;;;;;;3.30;3.10;;;5.50;65.10;;;;;;5296668;27;20359;-67
2024/04/20 06:41:34;;;;;;;3.03;2.70;;;5.70;65.60;;;;;;5306984;27;20238;-67
2024/04/20 06:44:02;;;;;;;2.70;2.60;;;5.70;64.20;;;;;;5293220;27;20274;-67
2024/04/20 06:46:30;;;;;;;2.80;2.60;;;5.70;64.20;;;;;;5294504;27;20249;-67
2024/04/20 06:49:00;;;;;;;3.40;2.90;;;5.70;64.20;;;;;;5294788;27;20769;-67
2024/04/20 06:51:28;;;;;;;3.03;2.83;;;5.60;64.40;;;;;;5285474;27;20243;-67
2024/04/20 06:53:57;;;;;;;2.40;2.20;;;5.70;64.20;;;;;;5293111;27;20299;-67
2024/04/20 06:56:26;;;;;;;3.00;2.80;;;5.80;64.30;;;;;;5310826;27;20362;-67
2024/04/20 06:58:54;;;;;;;3.40;3.10;;;5.70;64.20;;;;;;5299651;27;20342;-67
2024/04/20 07:01:22;;;;;;;2.77;2.57;;;5.80;64.30;;;;;;5298425;27;20242;-67
2024/04/20 07:03:51;;;;;;;3.03;2.83;;;5.80;62.80;;;;;;5305226;27;20352;-67
2024/04/20 07:06:19;;;;;;;3.03;2.80;;;5.80;63.90;;;;;;5305457;27;20403;-68
2024/04/20 07:08:47;;;;;;;3.23;3.00;;;5.80;63.60;;;;;;5282793;27;20238;-68
2024/04/20 07:11:15;;;;;;;3.83;3.13;;;5.90;63.20;;;;;;5288484;27;20747;-67
2024/04/20 07:13:43;;;;;;;4.07;2.90;;;5.80;62.40;;;;;;5307258;27;20323;-67
2024/04/20 07:16:12;;;;;;;2.80;2.60;;;5.90;63.00;;;;;;5297881;27;20340;-67
2024/04/20 07:18:40;;;;;;;3.17;2.97;;;5.90;62.50;;;;;;5302580;27;20308;-67
2024/04/20 07:21:08;;;;;;;3.20;2.90;;;5.90;62.40;;;;;;5295346;27;20251;-67
2024/04/20 07:23:36;;;;;;;3.67;2.90;;;6.00;62.80;;;;;;5307946;27;20373;-67
2024/04/20 07:26:05;;;;;;;3.30;3.00;;;6.00;61.30;;;;;;5288930;27;20375;-67
2024/04/20 07:28:33;;;;;;;3.40;3.10;;;6.10;61.30;;;;;;5309458;27;20277;-67
2024/04/20 07:31:01;;;;;;;2.83;2.53;;;6.40;61.70;;;;;;5302007;27;20860;-68
2024/04/20 07:33:29;;;;;;;3.10;2.80;;;6.50;60.30;;;;;;5286395;27;20740;-69
2024/04/20 07:35:58;;;;;;;2.97;2.77;;;6.50;61.10;;;;;;5298216;27;20811;-68
2024/04/20 07:38:26;;;;;;;2.70;2.50;;;6.40;60.20;;;;;;5301385;27;20248;-68
2024/04/20 07:40:54;;;;;;;2.80;2.60;;;6.40;59.60;;;;;;5308899;27;20262;-69
2024/04/20 07:43:22;;;;;;;4.27;2.73;;;6.30;59.10;;;;;;5294658;27;20326;-68
2024/04/20 07:45:51;;;;;;;3.97;3.33;;;6.20;59.40;;;;;;5304866;27;20361;-68
2024/04/20 07:48:19;;;;;;;2.80;2.60;;;6.50;58.40;;;;;;5305850;27;20308;-69
2024/04/20 07:50:47;;;;;;;2.40;2.30;;;7.00;56.40;;;;;;5300127;27;20300;-67
2024/04/20 07:53:15;;;;;;;2.97;2.73;;;7.20;56.50;;;;;;5303935;27;20248;-67
2024/04/20 07:55:44;;;;;;;2.73;2.07;;;7.30;56.60;;;;;;5302207;27;20244;-68
2024/04/20 07:58:13;;;;;;;3.43;2.70;;;7.00;55.10;;;;;;5306743;27;20264;-67
2024/04/20 08:00:41;;;;;;;2.53;2.23;;;6.90;55.20;;;;;;5310468;27;20287;-67
2024/04/20 08:03:09;;;;;;;3.17;2.60;;;6.70;55.70;;;;;;5301639;27;20258;-67
2024/04/20 08:05:38;;;;;;;3.73;3.10;;;6.70;55.30;;;;;;5311975;27;20317;-68
2024/04/20 08:08:06;;;;;;;2.60;2.40;;;6.50;56.00;;;;;;5299191;27;20295;-66
2024/04/20 08:10:34;;;;;;;2.60;2.40;;;6.60;56.00;;;;;;5293628;27;20244;-67
2024/04/20 08:13:03;;;;;;;2.70;2.50;;;6.70;55.40;;;;;;5310355;27;20248;-67
2024/04/20 08:15:31;;;;;;;2.70;2.50;;;6.70;55.50;;;;;;5285195;27;20643;-68
2024/04/20 08:17:59;;;;;;;2.40;2.20;;;6.80;54.40;;;;;;5300499;27;20324;-68
2024/04/20 08:20:28;;;;;;;2.63;2.43;;;6.90;54.20;;;;;;5275029;27;20320;-68
2024/04/20 08:22:57;;;;;;;3.03;2.00;;;6.90;54.50;;;;;;5305632;27;20375;-68
2024/04/20 08:25:26;;;;;;;2.50;2.30;;;6.90;55.20;;;;;;5305149;27;20244;-68
2024/04/20 08:27:54;;;;;;;2.67;2.47;;;7.10;53.50;;;;;;5302659;27;20241;-67
2024/04/20 08:30:23;;;;;;;2.63;2.40;;;7.10;52.60;;;;;;5298329;27;20981;-68
2024/04/20 08:32:51;;;;;;;2.33;2.23;;;7.30;52.80;;;;;;5298823;27;20650;-68
2024/04/20 08:35:19;;;;;;;2.53;2.30;;;7.40;52.70;;;;;;5308175;27;20241;-68
2024/04/20 08:37:48;;;;;;;2.60;2.33;;;7.70;50.50;;;;;;5304554;27;20317;-68
2024/04/20 08:40:17;;;;;;;2.57;2.37;;;7.80;50.50;;;;;;5303544;27;20299;-68
2024/04/20 08:42:45;;;;;;;2.33;2.20;;;8.10;50.40;;;;;;5254384;27;20482;-67
2024/04/20 08:45:14;;;;;;;3.83;2.30;;;8.10;49.90;;;;;;5274821;27;20699;-68
2024/04/20 08:47:43;;;;;;;3.20;2.43;;;8.40;49.60;;;;;;5283407;27;20295;-68
2024/04/20 08:50:11;;;;;;;2.30;2.10;;;8.80;49.70;;;;;;5275519;27;20246;-68
2024/04/20 08:52:39;;;;;;;3.93;2.20;;;8.80;47.80;;;;;;5281079;27;20347;-68
2024/04/20 08:55:07;;;;;;;2.53;2.23;;;8.50;48.30;;;;;;5295235;27;20274;-67
2024/04/20 08:57:37;;;;;;;2.17;2.07;;;8.60;48.50;;;;;;5279986;27;20245;-68
2024/04/20 09:00:06;;;;;;;2.23;2.00;;;8.50;46.80;;;;;;5278335;27;20262;-68
2024/04/20 09:02:35;;;;;;;2.73;2.40;;;8.70;48.00;;;;;;5278050;27;20304;-68
2024/04/20 09:05:03;;;;;;;2.00;1.87;;;8.70;47.40;;;;;;5301732;27;20393;-68
2024/04/20 09:07:31;;;;;;;2.13;2.03;;;9.00;47.20;;;;;;5285370;27;20253;-67
2024/04/20 09:09:59;;;;;;;2.53;2.33;;;8.70;46.80;;;;;;5300046;27;20297;-67
2024/04/20 09:12:28;;;;;;;2.20;2.10;;;8.20;47.80;;;;;;5309733;27;20328;-67
2024/04/20 09:14:56;;;;;;;2.10;2.00;;;7.90;49.50;;;;;;5305910;27;20297;-67
2024/04/20 09:17:25;;;;;;;2.50;2.33;;;7.90;51.10;;;;;;5297406;27;20361;-67
2024/04/20 09:19:53;;;;;;;3.67;2.40;;;7.80;51.90;;;;;;5289430;27;20303;-67
2024/04/20 09:22:21;;;;;;;2.43;2.27;;;8.00;51.30;;;;;;5306598;27;20317;-68
2024/04/20 09:24:49;;;;;;;2.60;2.23;;;8.20;51.30;;;;;;5292241;27;20595;-67
2024/04/20 09:27:18;;;;;;;2.67;2.40;;;8.60;51.40;;;;;;5266768;27;20305;-67
2024/04/20 09:29:46;;;;;;;2.37;2.17;;;8.70;50.80;;;;;;5242325;27;20246;-67
2024/04/20 09:32:14;;;;;;;3.17;2.47;;;8.90;50.20;;;;;;5283776;27;20251;-67
2024/04/20 09:34:43;;;;;;;2.20;2.00;;;8.70;48.90;;;;;;5277802;27;20393;-67
2024/04/20 09:37:11;;;;;;;4.57;2.37;;;8.70;48.90;;;;;;5274877;27;20250;-67
2024/04/20 09:39:39;;;;;;;2.13;2.03;;;9.30;49.40;;;;;;5276502;27;20248;-67
2024/04/20 09:42:07;;;;;;;2.67;2.20;;;9.60;48.10;;;;;;5269491;27;20279;-67
2024/04/20 09:44:36;;;;;;;2.37;2.17;;;9.40;47.60;;;;;;5270192;27;20249;-67
2024/04/20 09:47:04;;;;;;;2.40;2.20;;;9.20;47.40;;;;;;5270908;27;20248;-67
2024/04/20 09:49:34;;;;;;;2.63;2.23;;;9.40;49.00;;;;;;5273734;27;20378;-67
2024/04/20 09:52:02;;;;;;;2.80;2.40;;;9.60;47.30;;;;;;5266848;27;20357;-67
2024/04/20 09:54:30;;;;;;;2.77;1.90;;;9.60;45.60;;;;;;5273814;27;20278;-68
2024/04/20 09:56:59;;;;;;;3.37;2.03;;;9.70;45.00;;;;;;5274060;27;20252;-68
2024/04/20 09:59:27;;;;;;;3.80;2.30;;;9.70;45.20;;;;;;5264376;27;20994;-67
2024/04/20 10:01:55;;;;;;;4.27;2.30;;;9.60;45.30;;;;;;5266048;27;20256;-68
2024/04/20 10:04:23;;;;;;;2.10;2.00;;;9.40;44.60;;;;;;5266399;27;20333;-67
2024/04/20 10:06:52;;;;;;;2.80;2.57;;;8.90;45.70;;;;;;5264986;27;20337;-68
2024/04/20 10:09:20;;;;;;;3.37;2.07;;;8.70;48.20;;;;;;5285180;27;20313;-67
2024/04/20 10:11:49;;;;;;;2.50;2.30;;;8.30;49.30;;;;;;5275226;26;20600;-67
2024/04/20 10:14:17;;;;;;;2.70;2.50;;;7.90;51.10;;;;;;5272709;27;20324;-65
2024/04/20 10:16:45;;;;;;;2.53;2.33;;;7.70;52.50;;;;;;5292633;27;20337;-66
2024/04/20 10:19:17;;;;;;;2.63;2.20;;;7.60;53.10;;;;;;5299930;27;20359;-66
2024/04/20 10:21:45;;;;;;;2.47;2.27;;;7.50;53.60;;;;;;5271120;27;20816;-66
2024/04/20 10:24:13;;;;;;;2.30;2.20;;;7.90;53.80;;;;;;5300826;27;20253;-67
2024/04/20 10:26:41;;;;;;;2.53;2.33;;;8.40;52.20;;;;;;5296587;27;20239;-66
2024/04/20 10:29:10;;;;;;;2.30;2.03;;;9.30;51.20;;;;;;5286746;27;20299;-66
2024/04/20 10:31:38;;;;;;;1.67;1.57;;;10.00;49.30;;;;;;5293286;26;20792;-66
2024/04/20 10:34:07;;;;;;;1.80;1.70;;;10.50;46.80;;;;;;5302926;27;20300;-67
2024/04/20 10:36:35;;;;;;;1.90;1.80;;;10.50;45.80;;;;;;5294671;27;20756;-66
2024/04/20 10:39:04;;;;;;;1.80;1.70;;;10.40;46.90;;;;;;5296838;27;20333;-66
2024/04/20 10:41:32;;;;;;;2.73;2.20;;;10.50;47.40;;;;;;5304658;27;20248;-66
2024/04/20 10:44:00;;;;;;;2.03;1.93;;;10.80;45.20;;;;;;5285803;27;20239;-66
2024/04/20 10:46:29;;;;;;;2.17;2.07;;;10.50;45.00;;;;;;5291896;27;20800;-67
2024/04/20 10:48:54;;;;;;;1.97;1.80;;;10.60;44.90;;;;;;5303338;27;20235;-66
2024/04/20 10:51:26;;;;;;;2.33;2.00;;;10.90;45.10;;;;;;5310979;27;20240;-66
2024/04/20 10:53:54;;;;;;;1.73;1.63;;;10.90;42.30;;;;;;5292434;27;20295;-65
2024/04/20 10:56:23;;;;;;;2.13;1.93;;;11.10;41.50;;;;;;5287740;27;20257;-66
2024/04/20 10:58:51;;;;;;;2.63;1.87;;;10.70;42.90;;;;;;5305530;27;20319;-66
2024/04/20 11:01:19;;;;;;;2.10;1.93;;;10.60;43.10;;;;;;5292661;27;20349;-66
2024/04/20 11:03:47;;;;;;;2.20;2.00;;;10.60;42.90;;;;;;5293927;27;20310;-66
2024/04/20 11:06:15;;;;;;;2.37;2.17;;;10.50;41.90;;;;;;5290151;27;20736;-66
2024/04/20 11:08:44;;;;;;;2.33;1.80;;;11.00;41.50;;;;;;5298017;27;20293;-66
2024/04/20 11:11:12;;;;;;;2.57;1.97;;;10.80;40.90;;;;;;5306881;26;20302;-66
2024/04/20 11:13:41;;;;;;;2.53;1.90;;;10.40;42.80;;;;;;5276050;27;20258;-66
2024/04/20 11:16:10;;;;;;;3.43;2.00;;;10.10;43.30;;;;;;5289793;27;20263;-66
2024/04/20 11:18:38;;;;;;;2.83;2.03;;;9.70;44.90;;;;;;5296998;27;20269;-65
2024/04/20 11:21:06;;;;;;;2.43;2.00;;;9.60;45.00;;;;;;5306341;27;20392;-65
2024/04/20 11:23:34;;;;;;;2.27;2.07;;;9.50;44.40;;;;;;5296429;27;20737;-65
2024/04/20 11:26:03;;;;;;;2.10;2.00;;;9.60;43.50;;;;;;5297910;27;20249;-65
2024/04/20 11:28:31;;;;;;;1.93;1.83;;;9.50;43.80;;;;;;5295519;27;20653;-65
2024/04/20 11:31:01;;;;;;;2.00;1.90;;;9.70;44.40;;;;;;5297135;27;20369;-65
2024/04/20 11:33:29;;;;;;;1.97;1.83;;;10.50;42.20;;;;;;5307009;27;20297;-65
2024/04/20 11:35:57;;;;;;;1.90;1.80;;;10.50;42.00;;;;;;5297133;27;20780;-65
2024/04/20 11:38:25;;;;;;;1.60;1.50;;;12.40;38.60;;;;;;5302553;27;20257;-65
2024/04/20 11:40:53;;;;;;;2.47;1.37;;;14.70;34.10;;;;;;5297113;27;20301;-65
2024/04/20 11:43:22;;;;;;;1.47;1.40;;;13.90;33.40;;;;;;5292870;27;20383;-66
2024/04/20 11:45:49;;;;;;;1.30;1.20;;;14.10;32.80;;;;;;5287269;27;20255;-67
2024/04/20 11:48:18;;;;;;;2.67;1.50;;;14.50;32.00;;;;;;5301609;27;20328;-66
2024/04/20 11:50:46;;;;;;;2.23;1.60;;;14.20;32.00;;;;;;5303796;27;20636;-65
2024/04/20 11:55:58;;;;;;;2.90;2.70;;;16.40;28.50;;;;;;5301725;27;20349;-66
2024/04/20 11:58:27;;;;;;;2.37;1.60;;;16.30;30.00;;;;;;5308063;27;20361;-66
2024/04/20 12:00:55;;;;;;;1.60;1.47;;;14.00;34.00;;;;;;5292443;27;20656;-66
2024/04/20 12:03:23;;;;;;;1.40;1.30;;;11.90;38.00;;;;;;5307490;27;20253;-66
2024/04/20 12:05:52;;;;;;;1.63;1.53;;;10.80;41.40;;;;;;5294841;27;20637;-66
2024/04/20 12:08:20;;;;;;;1.80;1.70;;;9.90;46.10;;;;;;5303183;27;20306;-66
2024/04/20 12:10:49;;;;;;;1.93;1.83;;;9.30;48.40;;;;;;5289448;27;20251;-66
2024/04/20 12:13:17;;;;;;;2.33;2.00;;;8.90;49.10;;;;;;5285574;27;20302;-66
2024/04/20 12:15:45;;;;;;;2.00;1.80;;;8.70;48.90;;;;;;5300869;26;20290;-65
2024/04/20 12:18:14;;;;;;;1.90;1.80;;;8.70;49.40;;;;;;5302716;27;20246;-66
2024/04/20 12:20:42;;;;;;;2.03;1.93;;;9.10;49.20;;;;;;5309380;27;20599;-66
2024/04/20 12:23:10;;;;;;;2.10;2.00;;;9.40;47.60;;;;;;5303493;27;20330;-65
2024/04/20 12:25:38;;;;;;;1.90;1.80;;;9.70;48.00;;;;;;5302257;27;20281;-65
2024/04/20 12:28:07;;;;;;;2.10;2.00;;;10.00;46.40;;;;;;5299356;27;20300;-65
2024/04/20 12:30:35;;;;;;;1.90;1.80;;;10.20;46.00;;;;;;5289017;27;20808;-66
2024/04/20 12:33:03;;;;;;;2.00;1.90;;;10.40;44.00;;;;;;5297030;27;20359;-71
2024/04/20 12:35:31;;;;;;;2.07;1.90;;;10.50;46.20;;;;;;5295761;27;20309;-66
2024/04/20 12:38:00;;;;;;;2.20;2.00;;;10.60;45.20;;;;;;5290252;27;20788;-66
2024/04/20 12:40:28;;;;;;;1.90;1.80;;;10.70;46.00;;;;;;5297115;27;20295;-66
2024/04/20 12:42:58;;;;;;;1.60;1.50;;;10.80;43.90;;;;;;5293028;27;20293;-67
2024/04/20 12:45:30;;;;;;;2.10;2.00;;;10.60;41.80;;;;;;5265638;27;20581;-67
2024/04/20 12:47:58;;;;;;;2.00;1.90;;;10.50;41.20;;;;;;5297105;27;20349;-66
2024/04/20 12:50:26;;;;;;;1.60;1.50;;;10.60;42.10;;;;;;5268543;27;20794;-67
2024/04/20 12:52:54;;;;;;;1.70;1.60;;;10.30;41.70;;;;;;5306669;27;20313;-67
2024/04/20 12:55:23;;;;;;;2.17;1.90;;;10.40;40.20;;;;;;5289837;27;20317;-66
2024/04/20 12:57:51;;;;;;;2.07;1.87;;;10.10;40.00;;;;;;5306560;27;20816;-68
2024/04/20 13:00:19;;;;;;;2.07;1.93;;;9.80;42.50;;;;;;5272215;27;20269;-67
2024/04/20 13:02:48;;;;;;;2.20;2.00;;;9.90;42.30;;;;;;5263778;27;20250;-67